sensor_id;sensor_type;location;lat;lon;timestamp;P1;durP1;ratioP1;P2;durP2;ratioP2
45434;SDS011;31183;47.404;8.500;2023-03-01T00:01:19;42.97;;;28.17;;
45434;SDS011;31183;47.404;8.500;2023-03-01T00:03:47;42.90;;;26.90;;
45434;SDS011;31183;47.404;8.500;2023-03-01T00:06:14;44.10;;;28.05;;
45434;SDS011;31183;47.404;8.500;2023-03-01T00:08:41;42.03;;;28.52;;
45434;SDS011;31183;47.404;8.500;2023-03-01T00:11:15;46.22;;;29.98;;
45434;SDS011;31183;47.404;8.500;2023-03-01T00:13:43;43.58;;;29.45;;
45434;SDS011;31183;47.404;8.500;2023-03-01T00:16:12;46.05;;;28.85;;
45434;SDS011;31183;47.404;8.500;2023-03-01T00:18:40;48.42;;;29.02;;
45434;SDS011;31183;47.404;8.500;2023-03-01T00:21:07;42.17;;;27.40;;
45434;SDS011;31183;47.404;8.500;2023-03-01T00:23:34;41.30;;;27.42;;
45434;SDS011;31183;47.404;8.500;2023-03-01T00:26:01;42.97;;;26.58;;
45434;SDS011;31183;47.404;8.500;2023-03-01T00:28:32;48.60;;;30.75;;
45434;SDS011;31183;47.404;8.500;2023-03-01T00:31:16;44.08;;;28.95;;
45434;SDS011;31183;47.404;8.500;2023-03-01T00:33:47;41.35;;;27.75;;
45434;SDS011;31183;47.404;8.500;2023-03-01T00:36:14;40.72;;;27.70;;
45434;SDS011;31183;47.404;8.500;2023-03-01T00:38:42;42.90;;;28.17;;
45434;SDS011;31183;47.404;8.500;2023-03-01T00:41:11;41.90;;;29.17;;
45434;SDS011;31183;47.404;8.500;2023-03-01T00:43:41;44.67;;;28.50;;
45434;SDS011;31183;47.404;8.500;2023-03-01T00:46:09;43.13;;;29.08;;
45434;SDS011;31183;47.404;8.500;2023-03-01T00:48:38;42.53;;;28.25;;
45434;SDS011;31183;47.404;8.500;2023-03-01T00:51:06;43.00;;;28.73;;
45434;SDS011;31183;47.404;8.500;2023-03-01T00:53:43;40.45;;;28.30;;
45434;SDS011;31183;47.404;8.500;2023-03-01T00:56:11;45.42;;;29.35;;
45434;SDS011;31183;47.404;8.500;2023-03-01T00:58:39;47.22;;;30.50;;
45434;SDS011;31183;47.404;8.500;2023-03-01T01:01:10;45.75;;;30.52;;
45434;SDS011;31183;47.404;8.500;2023-03-01T01:03:44;45.55;;;29.10;;
45434;SDS011;31183;47.404;8.500;2023-03-01T01:06:15;51.15;;;29.90;;
45434;SDS011;31183;47.404;8.500;2023-03-01T01:08:47;43.28;;;28.63;;
45434;SDS011;31183;47.404;8.500;2023-03-01T01:11:15;47.95;;;29.83;;
45434;SDS011;31183;47.404;8.500;2023-03-01T01:13:43;42.47;;;29.38;;
45434;SDS011;31183;47.404;8.500;2023-03-01T01:16:11;44.25;;;27.88;;
45434;SDS011;31183;47.404;8.500;2023-03-01T01:18:38;42.05;;;29.10;;
45434;SDS011;31183;47.404;8.500;2023-03-01T01:21:06;43.83;;;28.02;;
45434;SDS011;31183;47.404;8.500;2023-03-01T01:23:40;44.30;;;30.38;;
45434;SDS011;31183;47.404;8.500;2023-03-01T01:26:18;42.08;;;27.45;;
45434;SDS011;31183;47.404;8.500;2023-03-01T01:28:47;45.28;;;28.92;;
45434;SDS011;31183;47.404;8.500;2023-03-01T01:31:15;46.33;;;29.98;;
45434;SDS011;31183;47.404;8.500;2023-03-01T01:33:41;40.78;;;28.08;;
45434;SDS011;31183;47.404;8.500;2023-03-01T01:36:08;39.65;;;28.00;;
45434;SDS011;31183;47.404;8.500;2023-03-01T01:38:35;41.42;;;28.45;;
45434;SDS011;31183;47.404;8.500;2023-03-01T01:41:04;40.60;;;27.80;;
45434;SDS011;31183;47.404;8.500;2023-03-01T01:43:33;45.50;;;28.65;;
45434;SDS011;31183;47.404;8.500;2023-03-01T01:46:06;38.60;;;26.58;;
45434;SDS011;31183;47.404;8.500;2023-03-01T01:48:51;43.83;;;28.58;;
45434;SDS011;31183;47.404;8.500;2023-03-01T01:51:23;47.55;;;28.73;;
45434;SDS011;31183;47.404;8.500;2023-03-01T01:53:55;42.85;;;28.75;;
45434;SDS011;31183;47.404;8.500;2023-03-01T01:56:25;43.83;;;27.23;;
45434;SDS011;31183;47.404;8.500;2023-03-01T01:58:55;38.93;;;27.13;;
45434;SDS011;31183;47.404;8.500;2023-03-01T02:01:22;43.97;;;26.60;;
45434;SDS011;31183;47.404;8.500;2023-03-01T02:03:48;44.30;;;28.10;;
45434;SDS011;31183;47.404;8.500;2023-03-01T02:06:18;43.70;;;28.48;;
45434;SDS011;31183;47.404;8.500;2023-03-01T02:08:49;45.22;;;29.63;;
45434;SDS011;31183;47.404;8.500;2023-03-01T02:11:17;49.05;;;28.40;;
45434;SDS011;31183;47.404;8.500;2023-03-01T02:13:45;40.80;;;27.88;;
45434;SDS011;31183;47.404;8.500;2023-03-01T02:16:14;42.83;;;27.55;;
45434;SDS011;31183;47.404;8.500;2023-03-01T02:18:42;39.67;;;26.70;;
45434;SDS011;31183;47.404;8.500;2023-03-01T02:23:45;38.10;;;27.38;;
45434;SDS011;31183;47.404;8.500;2023-03-01T02:26:18;40.47;;;27.73;;
45434;SDS011;31183;47.404;8.500;2023-03-01T02:28:57;43.60;;;28.05;;
45434;SDS011;31183;47.404;8.500;2023-03-01T02:31:24;38.65;;;27.08;;
45434;SDS011;31183;47.404;8.500;2023-03-01T02:34:13;40.92;;;27.20;;
45434;SDS011;31183;47.404;8.500;2023-03-01T02:36:53;42.92;;;29.20;;
45434;SDS011;31183;47.404;8.500;2023-03-01T02:39:27;39.70;;;27.43;;
45434;SDS011;31183;47.404;8.500;2023-03-01T02:42:00;40.72;;;26.45;;
45434;SDS011;31183;47.404;8.500;2023-03-01T02:44:28;41.47;;;28.65;;
45434;SDS011;31183;47.404;8.500;2023-03-01T02:46:55;41.83;;;27.92;;
45434;SDS011;31183;47.404;8.500;2023-03-01T02:49:27;47.38;;;27.90;;
45434;SDS011;31183;47.404;8.500;2023-03-01T02:57:17;42.95;;;28.05;;
45434;SDS011;31183;47.404;8.500;2023-03-01T02:59:44;39.47;;;27.92;;
45434;SDS011;31183;47.404;8.500;2023-03-01T03:02:24;45.05;;;28.10;;
45434;SDS011;31183;47.404;8.500;2023-03-01T03:05:06;40.88;;;26.58;;
45434;SDS011;31183;47.404;8.500;2023-03-01T03:07:39;41.67;;;28.60;;
45434;SDS011;31183;47.404;8.500;2023-03-01T03:10:12;41.97;;;27.92;;
45434;SDS011;31183;47.404;8.500;2023-03-01T03:13:03;42.88;;;28.13;;
45434;SDS011;31183;47.404;8.500;2023-03-01T03:15:31;46.90;;;29.23;;
45434;SDS011;31183;47.404;8.500;2023-03-01T03:18:03;44.92;;;29.13;;
45434;SDS011;31183;47.404;8.500;2023-03-01T03:20:32;39.78;;;26.73;;
45434;SDS011;31183;47.404;8.500;2023-03-01T03:22:59;40.13;;;27.50;;
45434;SDS011;31183;47.404;8.500;2023-03-01T03:25:26;42.50;;;28.17;;
45434;SDS011;31183;47.404;8.500;2023-03-01T03:27:54;42.70;;;27.33;;
45434;SDS011;31183;47.404;8.500;2023-03-01T03:30:26;43.38;;;28.40;;
45434;SDS011;31183;47.404;8.500;2023-03-01T03:32:54;42.42;;;27.70;;
45434;SDS011;31183;47.404;8.500;2023-03-01T03:35:26;43.38;;;28.35;;
45434;SDS011;31183;47.404;8.500;2023-03-01T03:37:56;46.90;;;27.75;;
45434;SDS011;31183;47.404;8.500;2023-03-01T03:42:58;41.88;;;27.65;;
45434;SDS011;31183;47.404;8.500;2023-03-01T03:45:25;45.08;;;28.92;;
45434;SDS011;31183;47.404;8.500;2023-03-01T03:47:51;42.05;;;28.33;;
45434;SDS011;31183;47.404;8.500;2023-03-01T03:50:18;40.72;;;29.00;;
45434;SDS011;31183;47.404;8.500;2023-03-01T03:52:45;44.47;;;28.65;;
45434;SDS011;31183;47.404;8.500;2023-03-01T03:55:12;41.20;;;28.00;;
45434;SDS011;31183;47.404;8.500;2023-03-01T03:57:39;41.65;;;27.23;;
45434;SDS011;31183;47.404;8.500;2023-03-01T04:00:09;42.78;;;28.05;;
45434;SDS011;31183;47.404;8.500;2023-03-01T04:02:43;41.83;;;28.20;;
45434;SDS011;31183;47.404;8.500;2023-03-01T04:07:40;44.45;;;28.90;;
45434;SDS011;31183;47.404;8.500;2023-03-01T04:10:09;49.60;;;29.52;;
45434;SDS011;31183;47.404;8.500;2023-03-01T04:12:38;41.67;;;28.00;;
45434;SDS011;31183;47.404;8.500;2023-03-01T04:15:05;45.63;;;28.15;;
45434;SDS011;31183;47.404;8.500;2023-03-01T04:17:42;41.95;;;28.15;;
45434;SDS011;31183;47.404;8.500;2023-03-01T04:22:43;41.47;;;27.02;;
45434;SDS011;31183;47.404;8.500;2023-03-01T04:25:13;41.05;;;27.42;;
45434;SDS011;31183;47.404;8.500;2023-03-01T04:27:40;43.97;;;28.35;;
45434;SDS011;31183;47.404;8.500;2023-03-01T04:30:07;44.85;;;28.88;;
45434;SDS011;31183;47.404;8.500;2023-03-01T04:32:35;45.92;;;29.65;;
45434;SDS011;31183;47.404;8.500;2023-03-01T04:35:01;46.72;;;29.42;;
45434;SDS011;31183;47.404;8.500;2023-03-01T04:37:28;46.53;;;29.10;;
45434;SDS011;31183;47.404;8.500;2023-03-01T04:39:55;45.60;;;29.60;;
45434;SDS011;31183;47.404;8.500;2023-03-01T04:42:22;46.20;;;30.80;;
45434;SDS011;31183;47.404;8.500;2023-03-01T04:44:49;47.92;;;28.50;;
45434;SDS011;31183;47.404;8.500;2023-03-01T04:47:17;47.55;;;27.95;;
45434;SDS011;31183;47.404;8.500;2023-03-01T04:49:43;41.38;;;28.60;;
45434;SDS011;31183;47.404;8.500;2023-03-01T04:52:10;46.45;;;29.70;;
45434;SDS011;31183;47.404;8.500;2023-03-01T04:54:36;48.05;;;29.55;;
45434;SDS011;31183;47.404;8.500;2023-03-01T04:57:03;45.60;;;28.60;;
45434;SDS011;31183;47.404;8.500;2023-03-01T04:59:30;44.38;;;28.90;;
45434;SDS011;31183;47.404;8.500;2023-03-01T05:01:56;44.63;;;29.23;;
45434;SDS011;31183;47.404;8.500;2023-03-01T05:04:23;50.88;;;32.08;;
45434;SDS011;31183;47.404;8.500;2023-03-01T05:06:50;45.53;;;28.90;;
45434;SDS011;31183;47.404;8.500;2023-03-01T05:09:19;46.17;;;29.65;;
45434;SDS011;31183;47.404;8.500;2023-03-01T05:11:46;48.50;;;31.60;;
45434;SDS011;31183;47.404;8.500;2023-03-01T05:14:12;49.35;;;30.33;;
45434;SDS011;31183;47.404;8.500;2023-03-01T05:16:39;51.38;;;30.98;;
45434;SDS011;31183;47.404;8.500;2023-03-01T05:19:06;47.28;;;30.83;;
45434;SDS011;31183;47.404;8.500;2023-03-01T05:21:41;50.25;;;29.17;;
45434;SDS011;31183;47.404;8.500;2023-03-01T05:24:27;50.58;;;31.60;;
45434;SDS011;31183;47.404;8.500;2023-03-01T05:26:55;49.08;;;30.65;;
45434;SDS011;31183;47.404;8.500;2023-03-01T05:29:22;49.15;;;29.90;;
45434;SDS011;31183;47.404;8.500;2023-03-01T05:31:54;45.33;;;27.70;;
45434;SDS011;31183;47.404;8.500;2023-03-01T05:34:24;50.05;;;29.90;;
45434;SDS011;31183;47.404;8.500;2023-03-01T05:36:53;51.43;;;30.50;;
45434;SDS011;31183;47.404;8.500;2023-03-01T05:39:20;45.72;;;30.17;;
45434;SDS011;31183;47.404;8.500;2023-03-01T05:41:51;46.55;;;30.25;;
45434;SDS011;31183;47.404;8.500;2023-03-01T05:44:19;49.78;;;32.08;;
45434;SDS011;31183;47.404;8.500;2023-03-01T05:46:46;51.78;;;32.03;;
45434;SDS011;31183;47.404;8.500;2023-03-01T05:49:13;50.40;;;31.40;;
45434;SDS011;31183;47.404;8.500;2023-03-01T05:51:40;52.05;;;32.05;;
45434;SDS011;31183;47.404;8.500;2023-03-01T05:54:07;54.13;;;31.70;;
45434;SDS011;31183;47.404;8.500;2023-03-01T05:56:35;50.28;;;30.08;;
45434;SDS011;31183;47.404;8.500;2023-03-01T05:59:03;47.58;;;31.58;;
45434;SDS011;31183;47.404;8.500;2023-03-01T06:01:34;52.95;;;32.13;;
45434;SDS011;31183;47.404;8.500;2023-03-01T06:04:01;55.05;;;31.33;;
45434;SDS011;31183;47.404;8.500;2023-03-01T06:06:33;52.45;;;32.78;;
45434;SDS011;31183;47.404;8.500;2023-03-01T06:09:00;51.25;;;30.50;;
45434;SDS011;31183;47.404;8.500;2023-03-01T06:11:27;48.70;;;30.77;;
45434;SDS011;31183;47.404;8.500;2023-03-01T06:13:53;54.63;;;32.03;;
45434;SDS011;31183;47.404;8.500;2023-03-01T06:16:20;51.63;;;31.42;;
45434;SDS011;31183;47.404;8.500;2023-03-01T06:18:46;55.28;;;31.35;;
45434;SDS011;31183;47.404;8.500;2023-03-01T06:21:13;52.17;;;32.38;;
45434;SDS011;31183;47.404;8.500;2023-03-01T06:23:40;51.17;;;31.73;;
45434;SDS011;31183;47.404;8.500;2023-03-01T06:26:07;52.72;;;31.88;;
45434;SDS011;31183;47.404;8.500;2023-03-01T06:28:35;53.45;;;30.98;;
45434;SDS011;31183;47.404;8.500;2023-03-01T06:31:02;56.70;;;31.65;;
45434;SDS011;31183;47.404;8.500;2023-03-01T06:33:28;51.65;;;32.30;;
45434;SDS011;31183;47.404;8.500;2023-03-01T06:35:55;50.88;;;29.60;;
45434;SDS011;31183;47.404;8.500;2023-03-01T06:38:23;50.03;;;29.77;;
45434;SDS011;31183;47.404;8.500;2023-03-01T06:40:53;53.17;;;29.77;;
45434;SDS011;31183;47.404;8.500;2023-03-01T06:43:21;52.13;;;31.77;;
45434;SDS011;31183;47.404;8.500;2023-03-01T06:45:47;49.85;;;31.38;;
45434;SDS011;31183;47.404;8.500;2023-03-01T06:48:14;52.35;;;30.90;;
45434;SDS011;31183;47.404;8.500;2023-03-01T06:50:40;49.97;;;29.80;;
45434;SDS011;31183;47.404;8.500;2023-03-01T06:53:07;48.63;;;30.67;;
45434;SDS011;31183;47.404;8.500;2023-03-01T06:55:34;50.08;;;31.63;;
45434;SDS011;31183;47.404;8.500;2023-03-01T06:58:01;56.53;;;31.50;;
45434;SDS011;31183;47.404;8.500;2023-03-01T07:00:29;54.47;;;32.35;;
45434;SDS011;31183;47.404;8.500;2023-03-01T07:02:57;48.30;;;30.48;;
45434;SDS011;31183;47.404;8.500;2023-03-01T07:05:25;51.10;;;32.15;;
45434;SDS011;31183;47.404;8.500;2023-03-01T07:07:52;58.15;;;32.85;;
45434;SDS011;31183;47.404;8.500;2023-03-01T07:10:19;51.15;;;31.83;;
45434;SDS011;31183;47.404;8.500;2023-03-01T07:12:46;55.10;;;30.52;;
45434;SDS011;31183;47.404;8.500;2023-03-01T07:15:14;60.30;;;29.67;;
45434;SDS011;31183;47.404;8.500;2023-03-01T07:17:41;48.13;;;30.70;;
45434;SDS011;31183;47.404;8.500;2023-03-01T07:20:08;47.17;;;28.92;;
45434;SDS011;31183;47.404;8.500;2023-03-01T07:22:35;55.03;;;30.30;;
45434;SDS011;31183;47.404;8.500;2023-03-01T07:25:01;52.63;;;31.67;;
45434;SDS011;31183;47.404;8.500;2023-03-01T07:27:28;49.15;;;30.05;;
45434;SDS011;31183;47.404;8.500;2023-03-01T07:29:55;48.95;;;29.38;;
45434;SDS011;31183;47.404;8.500;2023-03-01T07:32:21;53.15;;;30.15;;
45434;SDS011;31183;47.404;8.500;2023-03-01T07:34:48;48.47;;;30.05;;
45434;SDS011;31183;47.404;8.500;2023-03-01T07:37:14;52.20;;;30.20;;
45434;SDS011;31183;47.404;8.500;2023-03-01T07:39:41;48.90;;;30.85;;
45434;SDS011;31183;47.404;8.500;2023-03-01T07:42:08;45.95;;;29.02;;
45434;SDS011;31183;47.404;8.500;2023-03-01T07:44:34;47.17;;;29.20;;
45434;SDS011;31183;47.404;8.500;2023-03-01T07:47:01;49.45;;;29.13;;
45434;SDS011;31183;47.404;8.500;2023-03-01T07:49:29;52.80;;;31.50;;
45434;SDS011;31183;47.404;8.500;2023-03-01T07:51:56;50.25;;;29.63;;
45434;SDS011;31183;47.404;8.500;2023-03-01T07:54:22;51.40;;;30.58;;
45434;SDS011;31183;47.404;8.500;2023-03-01T07:56:49;48.20;;;30.55;;
45434;SDS011;31183;47.404;8.500;2023-03-01T07:59:15;47.58;;;29.10;;
45434;SDS011;31183;47.404;8.500;2023-03-01T08:01:42;48.35;;;29.60;;
45434;SDS011;31183;47.404;8.500;2023-03-01T08:04:09;50.25;;;30.50;;
45434;SDS011;31183;47.404;8.500;2023-03-01T08:06:36;47.22;;;28.88;;
45434;SDS011;31183;47.404;8.500;2023-03-01T08:09:03;53.13;;;30.75;;
45434;SDS011;31183;47.404;8.500;2023-03-01T08:11:30;47.63;;;28.13;;
45434;SDS011;31183;47.404;8.500;2023-03-01T08:13:56;44.53;;;28.27;;
45434;SDS011;31183;47.404;8.500;2023-03-01T08:16:23;47.90;;;30.42;;
45434;SDS011;31183;47.404;8.500;2023-03-01T08:18:50;52.10;;;30.05;;
45434;SDS011;31183;47.404;8.500;2023-03-01T08:21:17;52.67;;;29.48;;
45434;SDS011;31183;47.404;8.500;2023-03-01T08:23:44;52.38;;;31.45;;
45434;SDS011;31183;47.404;8.500;2023-03-01T08:26:16;46.17;;;28.98;;
45434;SDS011;31183;47.404;8.500;2023-03-01T08:28:44;51.33;;;30.70;;
45434;SDS011;31183;47.404;8.500;2023-03-01T08:31:13;54.55;;;30.58;;
45434;SDS011;31183;47.404;8.500;2023-03-01T08:33:45;46.63;;;29.77;;
45434;SDS011;31183;47.404;8.500;2023-03-01T08:36:24;50.60;;;30.13;;
45434;SDS011;31183;47.404;8.500;2023-03-01T08:38:56;53.38;;;29.35;;
45434;SDS011;31183;47.404;8.500;2023-03-01T08:41:23;48.75;;;30.40;;
45434;SDS011;31183;47.404;8.500;2023-03-01T08:43:50;53.85;;;31.33;;
45434;SDS011;31183;47.404;8.500;2023-03-01T08:46:18;48.47;;;29.27;;
45434;SDS011;31183;47.404;8.500;2023-03-01T08:48:45;51.72;;;29.02;;
45434;SDS011;31183;47.404;8.500;2023-03-01T08:51:13;50.47;;;31.23;;
45434;SDS011;31183;47.404;8.500;2023-03-01T08:53:46;52.05;;;30.90;;
45434;SDS011;31183;47.404;8.500;2023-03-01T08:56:13;50.60;;;29.50;;
45434;SDS011;31183;47.404;8.500;2023-03-01T08:58:44;50.72;;;29.73;;
45434;SDS011;31183;47.404;8.500;2023-03-01T09:01:15;51.97;;;31.15;;
45434;SDS011;31183;47.404;8.500;2023-03-01T09:03:43;52.38;;;32.20;;
45434;SDS011;31183;47.404;8.500;2023-03-01T09:06:10;54.50;;;30.02;;
45434;SDS011;31183;47.404;8.500;2023-03-01T09:08:38;42.90;;;27.15;;
45434;SDS011;31183;47.404;8.500;2023-03-01T09:11:06;49.78;;;30.40;;
45434;SDS011;31183;47.404;8.500;2023-03-01T09:13:35;47.50;;;28.70;;
45434;SDS011;31183;47.404;8.500;2023-03-01T09:16:02;46.35;;;28.52;;
45434;SDS011;31183;47.404;8.500;2023-03-01T09:18:31;49.22;;;30.00;;
45434;SDS011;31183;47.404;8.500;2023-03-01T09:21:06;46.72;;;29.38;;
45434;SDS011;31183;47.404;8.500;2023-03-01T09:23:45;49.40;;;29.20;;
45434;SDS011;31183;47.404;8.500;2023-03-01T09:26:13;46.97;;;29.45;;
45434;SDS011;31183;47.404;8.500;2023-03-01T09:28:45;53.00;;;30.75;;
45434;SDS011;31183;47.404;8.500;2023-03-01T09:31:13;48.83;;;29.60;;
45434;SDS011;31183;47.404;8.500;2023-03-01T09:33:41;52.80;;;29.33;;
45434;SDS011;31183;47.404;8.500;2023-03-01T09:36:11;48.05;;;29.88;;
45434;SDS011;31183;47.404;8.500;2023-03-01T09:38:39;48.63;;;29.27;;
45434;SDS011;31183;47.404;8.500;2023-03-01T09:41:28;47.47;;;29.85;;
45434;SDS011;31183;47.404;8.500;2023-03-01T09:44:03;47.97;;;28.77;;
45434;SDS011;31183;47.404;8.500;2023-03-01T09:46:52;47.38;;;30.23;;
45434;SDS011;31183;47.404;8.500;2023-03-01T09:49:23;50.28;;;28.10;;
45434;SDS011;31183;47.404;8.500;2023-03-01T09:52:03;50.50;;;30.42;;
45434;SDS011;31183;47.404;8.500;2023-03-01T09:54:49;51.75;;;30.65;;
45434;SDS011;31183;47.404;8.500;2023-03-01T10:02:38;46.42;;;28.52;;
45434;SDS011;31183;47.404;8.500;2023-03-01T10:10:48;49.92;;;30.10;;
45434;SDS011;31183;47.404;8.500;2023-03-01T10:15:50;50.65;;;29.40;;
45434;SDS011;31183;47.404;8.500;2023-03-01T10:18:28;53.45;;;30.83;;
45434;SDS011;31183;47.404;8.500;2023-03-01T10:20:59;52.40;;;29.63;;
45434;SDS011;31183;47.404;8.500;2023-03-01T10:23:28;57.25;;;30.38;;
45434;SDS011;31183;47.404;8.500;2023-03-01T10:26:09;44.13;;;29.08;;
45434;SDS011;31183;47.404;8.500;2023-03-01T10:31:49;44.72;;;26.88;;
45434;SDS011;31183;47.404;8.500;2023-03-01T10:34:21;53.97;;;29.88;;
45434;SDS011;31183;47.404;8.500;2023-03-01T10:36:56;53.88;;;29.35;;
45434;SDS011;31183;47.404;8.500;2023-03-01T10:39:27;49.33;;;29.30;;
45434;SDS011;31183;47.404;8.500;2023-03-01T10:44:40;49.97;;;28.90;;
45434;SDS011;31183;47.404;8.500;2023-03-01T10:47:12;48.67;;;28.92;;
45434;SDS011;31183;47.404;8.500;2023-03-01T10:49:51;49.58;;;27.55;;
45434;SDS011;31183;47.404;8.500;2023-03-01T10:52:32;47.20;;;30.08;;
45434;SDS011;31183;47.404;8.500;2023-03-01T10:57:39;49.20;;;29.13;;
45434;SDS011;31183;47.404;8.500;2023-03-01T11:00:15;43.80;;;27.15;;
45434;SDS011;31183;47.404;8.500;2023-03-01T11:02:49;44.15;;;26.73;;
45434;SDS011;31183;47.404;8.500;2023-03-01T11:05:23;53.63;;;30.15;;
45434;SDS011;31183;47.404;8.500;2023-03-01T11:07:55;47.25;;;28.48;;
45434;SDS011;31183;47.404;8.500;2023-03-01T11:10:28;46.65;;;28.55;;
45434;SDS011;31183;47.404;8.500;2023-03-01T11:13:18;45.40;;;28.27;;
45434;SDS011;31183;47.404;8.500;2023-03-01T11:16:02;49.65;;;27.85;;
45434;SDS011;31183;47.404;8.500;2023-03-01T11:18:32;43.72;;;27.33;;
45434;SDS011;31183;47.404;8.500;2023-03-01T11:21:13;47.17;;;27.13;;
45434;SDS011;31183;47.404;8.500;2023-03-01T11:23:40;48.65;;;28.95;;
45434;SDS011;31183;47.404;8.500;2023-03-01T11:26:11;49.22;;;28.77;;
45434;SDS011;31183;47.404;8.500;2023-03-01T11:28:41;47.83;;;29.90;;
45434;SDS011;31183;47.404;8.500;2023-03-01T11:31:11;45.72;;;26.98;;
45434;SDS011;31183;47.404;8.500;2023-03-01T11:33:55;44.55;;;28.15;;
45434;SDS011;31183;47.404;8.500;2023-03-01T11:39:05;47.40;;;27.80;;
45434;SDS011;31183;47.404;8.500;2023-03-01T11:41:44;46.58;;;26.35;;
45434;SDS011;31183;47.404;8.500;2023-03-01T11:44:23;42.85;;;27.00;;
45434;SDS011;31183;47.404;8.500;2023-03-01T11:52:13;45.65;;;26.80;;
45434;SDS011;31183;47.404;8.500;2023-03-01T12:09:12;41.75;;;28.05;;
45434;SDS011;31183;47.404;8.500;2023-03-01T12:17:44;49.08;;;28.13;;
45434;SDS011;31183;47.404;8.500;2023-03-01T12:20:24;42.92;;;27.92;;
45434;SDS011;31183;47.404;8.500;2023-03-01T12:31:32;49.47;;;29.83;;
45434;SDS011;31183;47.404;8.500;2023-03-01T12:39:32;46.70;;;28.88;;
45434;SDS011;31183;47.404;8.500;2023-03-01T12:42:27;44.80;;;28.92;;
45434;SDS011;31183;47.404;8.500;2023-03-01T12:50:28;41.50;;;28.33;;
45434;SDS011;31183;47.404;8.500;2023-03-01T12:53:07;46.42;;;27.58;;
45434;SDS011;31183;47.404;8.500;2023-03-01T12:55:48;50.08;;;28.65;;
45434;SDS011;31183;47.404;8.500;2023-03-01T13:00:59;45.83;;;29.05;;
45434;SDS011;31183;47.404;8.500;2023-03-01T13:18:02;48.17;;;29.80;;
45434;SDS011;31183;47.404;8.500;2023-03-01T13:20:58;46.67;;;27.45;;
45434;SDS011;31183;47.404;8.500;2023-03-01T13:23:30;47.13;;;27.83;;
45434;SDS011;31183;47.404;8.500;2023-03-01T13:26:14;44.67;;;28.05;;
45434;SDS011;31183;47.404;8.500;2023-03-01T13:28:50;42.83;;;28.08;;
45434;SDS011;31183;47.404;8.500;2023-03-01T13:33:51;43.00;;;28.27;;
45434;SDS011;31183;47.404;8.500;2023-03-01T13:44:12;69.22;;;30.23;;
45434;SDS011;31183;47.404;8.500;2023-03-01T13:46:59;51.80;;;27.35;;
45434;SDS011;31183;47.404;8.500;2023-03-01T13:49:45;55.90;;;29.77;;
45434;SDS011;31183;47.404;8.500;2023-03-01T13:52:30;45.75;;;27.52;;
45434;SDS011;31183;47.404;8.500;2023-03-01T13:54:58;48.13;;;28.17;;
45434;SDS011;31183;47.404;8.500;2023-03-01T13:57:30;39.75;;;27.58;;
45434;SDS011;31183;47.404;8.500;2023-03-01T14:00:00;43.67;;;26.92;;
45434;SDS011;31183;47.404;8.500;2023-03-01T14:02:27;44.25;;;29.02;;
45434;SDS011;31183;47.404;8.500;2023-03-01T14:05:00;45.28;;;29.05;;
45434;SDS011;31183;47.404;8.500;2023-03-01T14:07:27;49.13;;;27.08;;
45434;SDS011;31183;47.404;8.500;2023-03-01T14:10:03;45.95;;;28.45;;
45434;SDS011;31183;47.404;8.500;2023-03-01T14:12:39;51.15;;;30.63;;
45434;SDS011;31183;47.404;8.500;2023-03-01T14:15:46;47.42;;;27.45;;
45434;SDS011;31183;47.404;8.500;2023-03-01T14:18:29;46.33;;;28.58;;
45434;SDS011;31183;47.404;8.500;2023-03-01T14:21:07;44.35;;;26.65;;
45434;SDS011;31183;47.404;8.500;2023-03-01T14:23:34;49.50;;;29.00;;
45434;SDS011;31183;47.404;8.500;2023-03-01T14:26:04;45.83;;;28.38;;
45434;SDS011;31183;47.404;8.500;2023-03-01T14:28:31;48.13;;;28.42;;
45434;SDS011;31183;47.404;8.500;2023-03-01T14:31:00;45.25;;;27.58;;
45434;SDS011;31183;47.404;8.500;2023-03-01T14:33:29;42.80;;;26.92;;
45434;SDS011;31183;47.404;8.500;2023-03-01T14:38:36;46.85;;;28.10;;
45434;SDS011;31183;47.404;8.500;2023-03-01T14:41:08;43.70;;;27.27;;
45434;SDS011;31183;47.404;8.500;2023-03-01T14:43:55;48.78;;;29.80;;
45434;SDS011;31183;47.404;8.500;2023-03-01T14:46:26;43.92;;;27.58;;
45434;SDS011;31183;47.404;8.500;2023-03-01T14:49:04;46.92;;;27.95;;
45434;SDS011;31183;47.404;8.500;2023-03-01T14:51:38;45.85;;;27.40;;
45434;SDS011;31183;47.404;8.500;2023-03-01T14:54:20;51.55;;;28.25;;
45434;SDS011;31183;47.404;8.500;2023-03-01T14:56:52;44.72;;;28.13;;
45434;SDS011;31183;47.404;8.500;2023-03-01T14:59:21;46.70;;;27.77;;
45434;SDS011;31183;47.404;8.500;2023-03-01T15:01:50;44.25;;;28.63;;
45434;SDS011;31183;47.404;8.500;2023-03-01T15:04:18;43.38;;;27.65;;
45434;SDS011;31183;47.404;8.500;2023-03-01T15:06:46;50.47;;;29.80;;
45434;SDS011;31183;47.404;8.500;2023-03-01T15:09:14;53.92;;;29.75;;
45434;SDS011;31183;47.404;8.500;2023-03-01T15:11:43;48.40;;;27.48;;
45434;SDS011;31183;47.404;8.500;2023-03-01T15:17:36;47.60;;;28.70;;
45434;SDS011;31183;47.404;8.500;2023-03-01T15:20:06;46.38;;;26.60;;
45434;SDS011;31183;47.404;8.500;2023-03-01T15:22:45;48.38;;;28.50;;
45434;SDS011;31183;47.404;8.500;2023-03-01T15:25:16;49.22;;;28.10;;
45434;SDS011;31183;47.404;8.500;2023-03-01T15:27:47;46.95;;;27.30;;
45434;SDS011;31183;47.404;8.500;2023-03-01T15:30:22;47.05;;;26.58;;
45434;SDS011;31183;47.404;8.500;2023-03-01T15:35:46;45.65;;;28.38;;
45434;SDS011;31183;47.404;8.500;2023-03-01T15:38:23;42.80;;;27.40;;
45434;SDS011;31183;47.404;8.500;2023-03-01T15:40:52;46.42;;;27.98;;
45434;SDS011;31183;47.404;8.500;2023-03-01T15:46:21;48.40;;;28.88;;
45434;SDS011;31183;47.404;8.500;2023-03-01T15:48:59;45.00;;;26.60;;
45434;SDS011;31183;47.404;8.500;2023-03-01T15:51:30;43.45;;;26.23;;
45434;SDS011;31183;47.404;8.500;2023-03-01T15:53:58;43.35;;;27.95;;
45434;SDS011;31183;47.404;8.500;2023-03-01T15:56:26;47.65;;;28.40;;
45434;SDS011;31183;47.404;8.500;2023-03-01T15:58:53;40.67;;;26.38;;
45434;SDS011;31183;47.404;8.500;2023-03-01T16:01:24;43.45;;;26.42;;
45434;SDS011;31183;47.404;8.500;2023-03-01T16:03:51;42.15;;;25.77;;
45434;SDS011;31183;47.404;8.500;2023-03-01T16:06:17;43.03;;;25.92;;
45434;SDS011;31183;47.404;8.500;2023-03-01T16:08:44;42.35;;;26.75;;
45434;SDS011;31183;47.404;8.500;2023-03-01T16:11:13;39.15;;;25.45;;
45434;SDS011;31183;47.404;8.500;2023-03-01T16:13:42;41.28;;;26.17;;
45434;SDS011;31183;47.404;8.500;2023-03-01T16:16:13;42.22;;;26.38;;
45434;SDS011;31183;47.404;8.500;2023-03-01T16:18:43;40.95;;;25.95;;
45434;SDS011;31183;47.404;8.500;2023-03-01T16:21:20;40.45;;;24.17;;
45434;SDS011;31183;47.404;8.500;2023-03-01T16:23:49;41.10;;;25.45;;
45434;SDS011;31183;47.404;8.500;2023-03-01T16:26:17;38.38;;;23.63;;
45434;SDS011;31183;47.404;8.500;2023-03-01T16:28:46;41.45;;;24.90;;
45434;SDS011;31183;47.404;8.500;2023-03-01T16:31:16;43.67;;;26.30;;
45434;SDS011;31183;47.404;8.500;2023-03-01T16:33:45;39.90;;;25.65;;
45434;SDS011;31183;47.404;8.500;2023-03-01T16:36:16;43.92;;;26.20;;
45434;SDS011;31183;47.404;8.500;2023-03-01T16:38:44;42.17;;;25.50;;
45434;SDS011;31183;47.404;8.500;2023-03-01T16:41:12;44.22;;;25.13;;
45434;SDS011;31183;47.404;8.500;2023-03-01T16:43:40;39.67;;;25.40;;
45434;SDS011;31183;47.404;8.500;2023-03-01T16:46:12;39.65;;;24.90;;